sensor_id;sensor_type;location;lat;lon;timestamp;P1;durP1;ratioP1;P2;durP2;ratioP2
13269;SDS011;6703;51.994;7.570;2023-07-08T00:01:08;4.85;;;1.88;;
13269;SDS011;6703;51.994;7.570;2023-07-08T00:03:39;5.45;;;2.10;;
13269;SDS011;6703;51.994;7.570;2023-07-08T00:06:09;3.85;;;1.77;;
13269;SDS011;6703;51.994;7.570;2023-07-08T00:08:39;5.00;;;1.83;;
13269;SDS011;6703;51.994;7.570;2023-07-08T00:11:08;2.95;;;1.90;;
13269;SDS011;6703;51.994;7.570;2023-07-08T00:13:38;6.28;;;2.03;;
13269;SDS011;6703;51.994;7.570;2023-07-08T00:16:08;6.10;;;2.00;;
13269;SDS011;6703;51.994;7.570;2023-07-08T00:18:37;3.65;;;1.90;;
13269;SDS011;6703;51.994;7.570;2023-07-08T00:21:08;7.88;;;2.00;;
13269;SDS011;6703;51.994;7.570;2023-07-08T00:23:36;3.35;;;1.77;;
13269;SDS011;6703;51.994;7.570;2023-07-08T00:26:07;4.17;;;2.00;;
13269;SDS011;6703;51.994;7.570;2023-07-08T00:28:38;8.88;;;2.15;;
13269;SDS011;6703;51.994;7.570;2023-07-08T00:31:08;2.80;;;1.75;;
13269;SDS011;6703;51.994;7.570;2023-07-08T00:33:36;6.00;;;1.80;;
13269;SDS011;6703;51.994;7.570;2023-07-08T00:36:05;2.50;;;1.60;;
13269;SDS011;6703;51.994;7.570;2023-07-08T00:38:36;5.00;;;2.00;;
13269;SDS011;6703;51.994;7.570;2023-07-08T00:41:06;5.35;;;2.30;;
13269;SDS011;6703;51.994;7.570;2023-07-08T00:43:39;3.45;;;1.85;;
13269;SDS011;6703;51.994;7.570;2023-07-08T00:46:13;6.70;;;2.13;;
13269;SDS011;6703;51.994;7.570;2023-07-08T00:48:48;4.80;;;2.03;;
13269;SDS011;6703;51.994;7.570;2023-07-08T00:51:16;8.70;;;1.92;;
13269;SDS011;6703;51.994;7.570;2023-07-08T00:53:45;5.53;;;1.80;;
13269;SDS011;6703;51.994;7.570;2023-07-08T00:56:13;1.95;;;1.48;;
13269;SDS011;6703;51.994;7.570;2023-07-08T00:58:46;7.50;;;1.63;;
13269;SDS011;6703;51.994;7.570;2023-07-08T01:01:16;5.83;;;2.30;;
13269;SDS011;6703;51.994;7.570;2023-07-08T01:03:45;4.55;;;1.98;;
13269;SDS011;6703;51.994;7.570;2023-07-08T01:06:16;4.88;;;1.70;;
13269;SDS011;6703;51.994;7.570;2023-07-08T01:08:44;3.40;;;1.90;;
13269;SDS011;6703;51.994;7.570;2023-07-08T01:11:12;6.85;;;1.90;;
13269;SDS011;6703;51.994;7.570;2023-07-08T01:13:41;3.65;;;1.88;;
13269;SDS011;6703;51.994;7.570;2023-07-08T01:16:13;2.97;;;1.80;;
13269;SDS011;6703;51.994;7.570;2023-07-08T01:18:41;4.97;;;2.00;;
13269;SDS011;6703;51.994;7.570;2023-07-08T01:23:58;3.80;;;1.90;;
13269;SDS011;6703;51.994;7.570;2023-07-08T01:26:27;6.70;;;1.83;;
13269;SDS011;6703;51.994;7.570;2023-07-08T01:28:56;4.82;;;2.05;;
13269;SDS011;6703;51.994;7.570;2023-07-08T01:31:24;6.05;;;1.92;;
13269;SDS011;6703;51.994;7.570;2023-07-08T01:33:52;7.13;;;1.80;;
13269;SDS011;6703;51.994;7.570;2023-07-08T01:36:20;4.18;;;1.88;;
13269;SDS011;6703;51.994;7.570;2023-07-08T01:38:51;4.10;;;1.85;;
13269;SDS011;6703;51.994;7.570;2023-07-08T01:41:20;4.68;;;1.73;;
13269;SDS011;6703;51.994;7.570;2023-07-08T01:43:48;3.90;;;1.80;;
13269;SDS011;6703;51.994;7.570;2023-07-08T01:46:17;9.45;;;1.77;;
13269;SDS011;6703;51.994;7.570;2023-07-08T01:48:49;3.40;;;1.85;;
13269;SDS011;6703;51.994;7.570;2023-07-08T01:51:19;6.15;;;2.00;;
13269;SDS011;6703;51.994;7.570;2023-07-08T01:53:47;5.90;;;1.88;;
13269;SDS011;6703;51.994;7.570;2023-07-08T01:56:15;4.70;;;2.00;;
13269;SDS011;6703;51.994;7.570;2023-07-08T01:58:44;5.85;;;2.20;;
13269;SDS011;6703;51.994;7.570;2023-07-08T02:01:12;5.05;;;1.73;;
13269;SDS011;6703;51.994;7.570;2023-07-08T02:03:40;4.22;;;1.80;;
13269;SDS011;6703;51.994;7.570;2023-07-08T02:06:10;5.63;;;1.83;;
13269;SDS011;6703;51.994;7.570;2023-07-08T02:08:38;5.53;;;1.90;;
13269;SDS011;6703;51.994;7.570;2023-07-08T02:11:05;6.97;;;2.10;;
13269;SDS011;6703;51.994;7.570;2023-07-08T02:13:33;6.27;;;1.80;;
13269;SDS011;6703;51.994;7.570;2023-07-08T02:16:02;5.40;;;1.95;;
13269;SDS011;6703;51.994;7.570;2023-07-08T02:18:30;6.15;;;1.90;;
13269;SDS011;6703;51.994;7.570;2023-07-08T02:20:58;5.18;;;1.77;;
13269;SDS011;6703;51.994;7.570;2023-07-08T02:23:27;5.68;;;2.05;;
13269;SDS011;6703;51.994;7.570;2023-07-08T02:25:54;6.13;;;2.00;;
13269;SDS011;6703;51.994;7.570;2023-07-08T02:28:23;4.50;;;1.80;;
13269;SDS011;6703;51.994;7.570;2023-07-08T02:30:50;8.00;;;2.20;;
13269;SDS011;6703;51.994;7.570;2023-07-08T02:33:19;7.27;;;1.90;;
13269;SDS011;6703;51.994;7.570;2023-07-08T02:35:53;6.22;;;1.90;;
13269;SDS011;6703;51.994;7.570;2023-07-08T02:38:21;4.40;;;2.00;;
13269;SDS011;6703;51.994;7.570;2023-07-08T02:40:49;10.10;;;1.90;;
13269;SDS011;6703;51.994;7.570;2023-07-08T02:43:17;8.15;;;2.00;;
13269;SDS011;6703;51.994;7.570;2023-07-08T02:45:44;3.45;;;1.90;;
13269;SDS011;6703;51.994;7.570;2023-07-08T02:48:12;5.70;;;2.17;;
13269;SDS011;6703;51.994;7.570;2023-07-08T02:50:41;4.07;;;1.75;;
13269;SDS011;6703;51.994;7.570;2023-07-08T02:53:09;4.93;;;2.05;;
13269;SDS011;6703;51.994;7.570;2023-07-08T02:55:37;6.10;;;2.27;;
13269;SDS011;6703;51.994;7.570;2023-07-08T02:58:05;8.73;;;2.00;;
13269;SDS011;6703;51.994;7.570;2023-07-08T03:00:50;7.72;;;2.10;;
13269;SDS011;6703;51.994;7.570;2023-07-08T03:03:18;5.15;;;2.05;;
13269;SDS011;6703;51.994;7.570;2023-07-08T03:05:54;6.80;;;2.30;;
13269;SDS011;6703;51.994;7.570;2023-07-08T03:08:23;5.28;;;2.10;;
13269;SDS011;6703;51.994;7.570;2023-07-08T03:10:54;3.85;;;1.73;;
13269;SDS011;6703;51.994;7.570;2023-07-08T03:13:24;10.93;;;2.42;;
13269;SDS011;6703;51.994;7.570;2023-07-08T03:15:52;5.78;;;2.03;;
13269;SDS011;6703;51.994;7.570;2023-07-08T03:18:21;6.28;;;2.22;;
13269;SDS011;6703;51.994;7.570;2023-07-08T03:20:50;4.93;;;2.13;;
13269;SDS011;6703;51.994;7.570;2023-07-08T03:23:19;7.15;;;2.03;;
13269;SDS011;6703;51.994;7.570;2023-07-08T03:25:46;5.05;;;2.05;;
13269;SDS011;6703;51.994;7.570;2023-07-08T03:28:14;6.25;;;2.05;;
13269;SDS011;6703;51.994;7.570;2023-07-08T03:30:43;7.18;;;2.20;;
13269;SDS011;6703;51.994;7.570;2023-07-08T03:33:11;7.22;;;1.98;;
13269;SDS011;6703;51.994;7.570;2023-07-08T03:35:39;6.25;;;2.08;;
13269;SDS011;6703;51.994;7.570;2023-07-08T03:38:07;6.20;;;1.93;;
13269;SDS011;6703;51.994;7.570;2023-07-08T03:40:36;6.95;;;2.10;;
13269;SDS011;6703;51.994;7.570;2023-07-08T03:43:04;7.22;;;2.03;;
13269;SDS011;6703;51.994;7.570;2023-07-08T03:45:32;4.18;;;1.92;;
13269;SDS011;6703;51.994;7.570;2023-07-08T03:47:59;7.83;;;1.93;;
13269;SDS011;6703;51.994;7.570;2023-07-08T03:50:27;4.95;;;1.77;;
13269;SDS011;6703;51.994;7.570;2023-07-08T03:52:55;6.50;;;2.20;;
13269;SDS011;6703;51.994;7.570;2023-07-08T03:55:23;8.57;;;2.15;;
13269;SDS011;6703;51.994;7.570;2023-07-08T03:57:52;4.85;;;2.38;;
13269;SDS011;6703;51.994;7.570;2023-07-08T04:00:20;6.32;;;2.13;;
13269;SDS011;6703;51.994;7.570;2023-07-08T04:02:48;5.68;;;1.92;;
13269;SDS011;6703;51.994;7.570;2023-07-08T04:05:16;8.32;;;2.10;;
13269;SDS011;6703;51.994;7.570;2023-07-08T04:07:45;6.78;;;1.98;;
13269;SDS011;6703;51.994;7.570;2023-07-08T04:10:13;8.05;;;1.98;;
13269;SDS011;6703;51.994;7.570;2023-07-08T04:12:41;10.07;;;2.30;;
13269;SDS011;6703;51.994;7.570;2023-07-08T04:15:11;5.10;;;1.80;;
13269;SDS011;6703;51.994;7.570;2023-07-08T04:17:41;5.90;;;2.15;;
13269;SDS011;6703;51.994;7.570;2023-07-08T04:20:12;6.38;;;2.45;;
13269;SDS011;6703;51.994;7.570;2023-07-08T04:22:41;8.82;;;2.60;;
13269;SDS011;6703;51.994;7.570;2023-07-08T04:25:09;7.80;;;2.10;;
13269;SDS011;6703;51.994;7.570;2023-07-08T04:27:38;4.30;;;2.08;;
13269;SDS011;6703;51.994;7.570;2023-07-08T04:30:06;4.15;;;2.08;;
13269;SDS011;6703;51.994;7.570;2023-07-08T04:32:38;10.93;;;2.28;;
13269;SDS011;6703;51.994;7.570;2023-07-08T04:35:09;3.25;;;2.03;;
13269;SDS011;6703;51.994;7.570;2023-07-08T04:37:37;6.05;;;1.88;;
13269;SDS011;6703;51.994;7.570;2023-07-08T04:40:07;5.43;;;1.75;;
13269;SDS011;6703;51.994;7.570;2023-07-08T04:42:40;7.93;;;2.10;;
13269;SDS011;6703;51.994;7.570;2023-07-08T04:45:08;5.03;;;2.10;;
13269;SDS011;6703;51.994;7.570;2023-07-08T04:47:36;5.72;;;1.88;;
13269;SDS011;6703;51.994;7.570;2023-07-08T04:50:05;6.17;;;1.80;;
13269;SDS011;6703;51.994;7.570;2023-07-08T04:52:36;6.83;;;2.23;;
13269;SDS011;6703;51.994;7.570;2023-07-08T04:55:04;7.75;;;2.38;;
13269;SDS011;6703;51.994;7.570;2023-07-08T04:57:32;5.72;;;2.00;;
13269;SDS011;6703;51.994;7.570;2023-07-08T05:00:00;5.70;;;2.20;;
13269;SDS011;6703;51.994;7.570;2023-07-08T05:02:28;5.10;;;1.93;;
13269;SDS011;6703;51.994;7.570;2023-07-08T05:04:56;3.95;;;1.98;;
13269;SDS011;6703;51.994;7.570;2023-07-08T05:07:25;6.75;;;2.00;;
13269;SDS011;6703;51.994;7.570;2023-07-08T05:09:53;2.92;;;1.90;;
13269;SDS011;6703;51.994;7.570;2023-07-08T05:12:21;4.60;;;1.90;;
13269;SDS011;6703;51.994;7.570;2023-07-08T05:14:48;3.40;;;1.80;;
13269;SDS011;6703;51.994;7.570;2023-07-08T05:17:16;5.03;;;2.05;;
13269;SDS011;6703;51.994;7.570;2023-07-08T05:19:44;4.30;;;1.85;;
13269;SDS011;6703;51.994;7.570;2023-07-08T05:22:12;4.82;;;2.10;;
13269;SDS011;6703;51.994;7.570;2023-07-08T05:24:41;7.63;;;1.92;;
13269;SDS011;6703;51.994;7.570;2023-07-08T05:27:12;3.80;;;1.80;;
13269;SDS011;6703;51.994;7.570;2023-07-08T05:29:41;4.55;;;1.85;;
13269;SDS011;6703;51.994;7.570;2023-07-08T05:32:09;5.03;;;1.77;;
13269;SDS011;6703;51.994;7.570;2023-07-08T05:34:37;3.60;;;1.63;;
13269;SDS011;6703;51.994;7.570;2023-07-08T05:37:05;4.25;;;1.70;;
13269;SDS011;6703;51.994;7.570;2023-07-08T05:39:32;5.68;;;1.65;;
13269;SDS011;6703;51.994;7.570;2023-07-08T05:42:02;6.40;;;2.40;;
13269;SDS011;6703;51.994;7.570;2023-07-08T05:44:30;3.53;;;1.70;;
13269;SDS011;6703;51.994;7.570;2023-07-08T05:46:58;4.40;;;2.03;;
13269;SDS011;6703;51.994;7.570;2023-07-08T05:49:26;4.72;;;1.90;;
13269;SDS011;6703;51.994;7.570;2023-07-08T05:51:53;4.40;;;1.65;;
13269;SDS011;6703;51.994;7.570;2023-07-08T05:54:21;5.30;;;2.20;;
13269;SDS011;6703;51.994;7.570;2023-07-08T05:56:50;4.03;;;1.83;;
13269;SDS011;6703;51.994;7.570;2023-07-08T05:59:20;3.55;;;1.70;;
13269;SDS011;6703;51.994;7.570;2023-07-08T06:01:47;4.40;;;1.80;;
13269;SDS011;6703;51.994;7.570;2023-07-08T06:04:15;8.63;;;1.85;;
13269;SDS011;6703;51.994;7.570;2023-07-08T06:06:43;30.77;;;1.92;;
13269;SDS011;6703;51.994;7.570;2023-07-08T06:09:11;4.32;;;1.80;;
13269;SDS011;6703;51.994;7.570;2023-07-08T06:11:38;7.38;;;1.88;;
13269;SDS011;6703;51.994;7.570;2023-07-08T06:14:06;3.58;;;1.85;;
13269;SDS011;6703;51.994;7.570;2023-07-08T06:16:35;4.85;;;1.70;;
13269;SDS011;6703;51.994;7.570;2023-07-08T06:19:07;6.25;;;1.80;;
13269;SDS011;6703;51.994;7.570;2023-07-08T06:21:35;3.53;;;1.63;;
13269;SDS011;6703;51.994;7.570;2023-07-08T06:24:03;3.70;;;1.70;;
13269;SDS011;6703;51.994;7.570;2023-07-08T06:26:31;3.22;;;1.70;;
13269;SDS011;6703;51.994;7.570;2023-07-08T06:28:59;4.72;;;1.55;;
13269;SDS011;6703;51.994;7.570;2023-07-08T06:31:27;5.32;;;2.00;;
13269;SDS011;6703;51.994;7.570;2023-07-08T06:33:57;4.28;;;1.48;;
13269;SDS011;6703;51.994;7.570;2023-07-08T06:36:25;3.67;;;1.67;;
13269;SDS011;6703;51.994;7.570;2023-07-08T06:38:52;6.93;;;1.90;;
13269;SDS011;6703;51.994;7.570;2023-07-08T06:41:20;3.80;;;1.60;;
13269;SDS011;6703;51.994;7.570;2023-07-08T06:43:48;4.47;;;1.75;;
13269;SDS011;6703;51.994;7.570;2023-07-08T06:46:16;3.35;;;1.50;;
13269;SDS011;6703;51.994;7.570;2023-07-08T06:48:45;3.70;;;1.80;;
13269;SDS011;6703;51.994;7.570;2023-07-08T06:51:14;3.25;;;1.90;;
13269;SDS011;6703;51.994;7.570;2023-07-08T06:53:43;8.38;;;2.00;;
13269;SDS011;6703;51.994;7.570;2023-07-08T06:56:11;3.85;;;1.70;;
13269;SDS011;6703;51.994;7.570;2023-07-08T06:58:39;4.68;;;1.92;;
13269;SDS011;6703;51.994;7.570;2023-07-08T07:01:07;7.77;;;2.10;;
13269;SDS011;6703;51.994;7.570;2023-07-08T07:03:34;4.85;;;1.90;;
13269;SDS011;6703;51.994;7.570;2023-07-08T07:06:02;5.70;;;1.90;;
13269;SDS011;6703;51.994;7.570;2023-07-08T07:08:31;5.05;;;1.63;;
13269;SDS011;6703;51.994;7.570;2023-07-08T07:10:59;2.53;;;1.45;;
13269;SDS011;6703;51.994;7.570;2023-07-08T07:13:27;3.70;;;1.60;;
13269;SDS011;6703;51.994;7.570;2023-07-08T07:15:55;4.72;;;1.80;;
13269;SDS011;6703;51.994;7.570;2023-07-08T07:18:23;10.83;;;1.80;;
13269;SDS011;6703;51.994;7.570;2023-07-08T07:20:53;4.88;;;1.77;;
13269;SDS011;6703;51.994;7.570;2023-07-08T07:23:21;7.07;;;1.63;;
13269;SDS011;6703;51.994;7.570;2023-07-08T07:25:50;4.53;;;2.00;;
13269;SDS011;6703;51.994;7.570;2023-07-08T07:28:18;5.03;;;2.05;;
13269;SDS011;6703;51.994;7.570;2023-07-08T07:30:46;7.53;;;2.00;;
13269;SDS011;6703;51.994;7.570;2023-07-08T07:33:14;5.78;;;1.90;;
13269;SDS011;6703;51.994;7.570;2023-07-08T07:35:43;4.90;;;2.22;;
13269;SDS011;6703;51.994;7.570;2023-07-08T07:38:11;5.30;;;1.90;;
13269;SDS011;6703;51.994;7.570;2023-07-08T07:40:40;8.35;;;1.83;;
13269;SDS011;6703;51.994;7.570;2023-07-08T07:43:09;3.58;;;1.77;;
13269;SDS011;6703;51.994;7.570;2023-07-08T07:45:37;8.18;;;1.88;;
13269;SDS011;6703;51.994;7.570;2023-07-08T07:48:04;6.03;;;1.98;;
13269;SDS011;6703;51.994;7.570;2023-07-08T07:50:33;8.20;;;2.03;;
13269;SDS011;6703;51.994;7.570;2023-07-08T07:53:01;5.80;;;1.73;;
13269;SDS011;6703;51.994;7.570;2023-07-08T07:55:29;7.55;;;2.10;;
13269;SDS011;6703;51.994;7.570;2023-07-08T07:57:56;7.47;;;2.03;;
13269;SDS011;6703;51.994;7.570;2023-07-08T08:00:28;4.80;;;2.00;;
13269;SDS011;6703;51.994;7.570;2023-07-08T08:02:56;6.68;;;1.90;;
13269;SDS011;6703;51.994;7.570;2023-07-08T08:05:24;5.28;;;1.90;;
13269;SDS011;6703;51.994;7.570;2023-07-08T08:07:52;5.97;;;2.20;;
13269;SDS011;6703;51.994;7.570;2023-07-08T08:10:20;5.20;;;2.10;;
13269;SDS011;6703;51.994;7.570;2023-07-08T08:12:47;9.65;;;1.90;;
13269;SDS011;6703;51.994;7.570;2023-07-08T08:15:20;4.97;;;2.15;;
13269;SDS011;6703;51.994;7.570;2023-07-08T08:17:49;4.00;;;2.30;;
13269;SDS011;6703;51.994;7.570;2023-07-08T08:20:19;6.18;;;2.00;;
13269;SDS011;6703;51.994;7.570;2023-07-08T08:22:48;3.63;;;2.10;;
13269;SDS011;6703;51.994;7.570;2023-07-08T08:25:16;7.22;;;2.50;;
13269;SDS011;6703;51.994;7.570;2023-07-08T08:27:45;4.45;;;2.40;;
13269;SDS011;6703;51.994;7.570;2023-07-08T08:30:13;5.55;;;2.10;;
13269;SDS011;6703;51.994;7.570;2023-07-08T08:32:41;6.55;;;2.20;;
13269;SDS011;6703;51.994;7.570;2023-07-08T08:35:10;6.18;;;2.20;;
13269;SDS011;6703;51.994;7.570;2023-07-08T08:37:38;7.88;;;2.55;;
13269;SDS011;6703;51.994;7.570;2023-07-08T08:40:08;10.20;;;2.58;;
13269;SDS011;6703;51.994;7.570;2023-07-08T08:42:46;4.18;;;2.40;;
13269;SDS011;6703;51.994;7.570;2023-07-08T08:45:19;7.32;;;2.40;;
13269;SDS011;6703;51.994;7.570;2023-07-08T08:47:49;4.80;;;2.40;;
13269;SDS011;6703;51.994;7.570;2023-07-08T08:50:23;4.78;;;2.55;;
13269;SDS011;6703;51.994;7.570;2023-07-08T08:52:55;5.13;;;2.67;;
13269;SDS011;6703;51.994;7.570;2023-07-08T08:55:23;5.68;;;2.40;;
13269;SDS011;6703;51.994;7.570;2023-07-08T08:57:53;4.80;;;2.25;;
13269;SDS011;6703;51.994;7.570;2023-07-08T09:00:28;6.05;;;2.80;;
13269;SDS011;6703;51.994;7.570;2023-07-08T09:02:58;5.93;;;2.80;;
13269;SDS011;6703;51.994;7.570;2023-07-08T09:05:30;8.75;;;2.63;;
13269;SDS011;6703;51.994;7.570;2023-07-08T09:08:00;8.48;;;2.50;;
13269;SDS011;6703;51.994;7.570;2023-07-08T09:10:35;6.45;;;2.70;;
13269;SDS011;6703;51.994;7.570;2023-07-08T09:13:11;9.48;;;2.60;;
13269;SDS011;6703;51.994;7.570;2023-07-08T09:15:44;4.78;;;2.25;;
13269;SDS011;6703;51.994;7.570;2023-07-08T09:18:14;10.63;;;2.83;;
13269;SDS011;6703;51.994;7.570;2023-07-08T09:20:48;6.85;;;2.55;;
13269;SDS011;6703;51.994;7.570;2023-07-08T09:23:17;6.53;;;2.50;;
13269;SDS011;6703;51.994;7.570;2023-07-08T09:25:49;8.07;;;2.73;;
13269;SDS011;6703;51.994;7.570;2023-07-08T09:28:19;4.63;;;2.50;;
13269;SDS011;6703;51.994;7.570;2023-07-08T09:31:03;6.28;;;2.22;;
13269;SDS011;6703;51.994;7.570;2023-07-08T09:33:34;6.47;;;2.60;;
13269;SDS011;6703;51.994;7.570;2023-07-08T09:36:17;4.75;;;2.40;;
13269;SDS011;6703;51.994;7.570;2023-07-08T09:38:47;8.15;;;2.80;;
13269;SDS011;6703;51.994;7.570;2023-07-08T09:41:17;6.83;;;2.60;;
13269;SDS011;6703;51.994;7.570;2023-07-08T09:44:03;6.28;;;2.47;;
13269;SDS011;6703;51.994;7.570;2023-07-08T09:46:36;7.57;;;2.92;;
13269;SDS011;6703;51.994;7.570;2023-07-08T09:49:15;6.15;;;2.97;;
13269;SDS011;6703;51.994;7.570;2023-07-08T09:51:46;10.68;;;3.47;;
13269;SDS011;6703;51.994;7.570;2023-07-08T09:54:16;6.60;;;2.70;;
13269;SDS011;6703;51.994;7.570;2023-07-08T09:56:48;5.80;;;2.65;;
13269;SDS011;6703;51.994;7.570;2023-07-08T09:59:21;6.90;;;2.67;;
13269;SDS011;6703;51.994;7.570;2023-07-08T10:01:50;12.17;;;3.00;;
13269;SDS011;6703;51.994;7.570;2023-07-08T10:04:19;7.38;;;2.63;;
13269;SDS011;6703;51.994;7.570;2023-07-08T10:06:48;57.92;;;9.50;;
13269;SDS011;6703;51.994;7.570;2023-07-08T10:09:20;74.72;;;10.05;;
13269;SDS011;6703;51.994;7.570;2023-07-08T10:11:53;38.53;;;6.32;;
13269;SDS011;6703;51.994;7.570;2023-07-08T10:14:25;21.20;;;4.43;;
13269;SDS011;6703;51.994;7.570;2023-07-08T10:16:55;46.47;;;8.07;;
13269;SDS011;6703;51.994;7.570;2023-07-08T10:19:23;12.60;;;3.30;;
13269;SDS011;6703;51.994;7.570;2023-07-08T10:21:55;6.00;;;2.92;;
13269;SDS011;6703;51.994;7.570;2023-07-08T10:24:33;6.85;;;2.95;;
13269;SDS011;6703;51.994;7.570;2023-07-08T10:27:07;5.13;;;2.78;;
13269;SDS011;6703;51.994;7.570;2023-07-08T10:29:41;6.03;;;3.03;;
13269;SDS011;6703;51.994;7.570;2023-07-08T10:32:17;6.78;;;2.97;;
13269;SDS011;6703;51.994;7.570;2023-07-08T10:34:49;6.80;;;3.10;;
13269;SDS011;6703;51.994;7.570;2023-07-08T10:40:45;4.28;;;2.80;;
13269;SDS011;6703;51.994;7.570;2023-07-08T10:43:19;6.28;;;2.78;;
13269;SDS011;6703;51.994;7.570;2023-07-08T10:45:57;7.15;;;3.05;;
13269;SDS011;6703;51.994;7.570;2023-07-08T10:49:00;7.38;;;2.83;;
13269;SDS011;6703;51.994;7.570;2023-07-08T10:51:36;9.63;;;3.27;;
13269;SDS011;6703;51.994;7.570;2023-07-08T10:54:13;6.45;;;2.97;;
13269;SDS011;6703;51.994;7.570;2023-07-08T10:56:53;11.38;;;3.20;;
13269;SDS011;6703;51.994;7.570;2023-07-08T10:59:25;7.07;;;3.00;;
13269;SDS011;6703;51.994;7.570;2023-07-08T11:02:14;7.75;;;3.22;;
13269;SDS011;6703;51.994;7.570;2023-07-08T11:04:52;7.28;;;3.63;;
13269;SDS011;6703;51.994;7.570;2023-07-08T11:07:30;10.53;;;3.87;;
13269;SDS011;6703;51.994;7.570;2023-07-08T11:10:05;5.90;;;3.00;;
13269;SDS011;6703;51.994;7.570;2023-07-08T11:12:38;9.93;;;3.33;;
13269;SDS011;6703;51.994;7.570;2023-07-08T11:15:13;9.55;;;3.45;;
13269;SDS011;6703;51.994;7.570;2023-07-08T11:17:46;7.90;;;3.40;;
13269;SDS011;6703;51.994;7.570;2023-07-08T11:20:18;9.13;;;3.80;;
13269;SDS011;6703;51.994;7.570;2023-07-08T11:22:49;11.82;;;3.50;;
13269;SDS011;6703;51.994;7.570;2023-07-08T11:25:20;7.28;;;3.42;;
13269;SDS011;6703;51.994;7.570;2023-07-08T11:27:51;7.75;;;3.70;;
13269;SDS011;6703;51.994;7.570;2023-07-08T11:30:21;6.05;;;3.38;;
13269;SDS011;6703;51.994;7.570;2023-07-08T11:32:54;11.30;;;3.53;;
13269;SDS011;6703;51.994;7.570;2023-07-08T11:35:29;7.65;;;3.08;;
13269;SDS011;6703;51.994;7.570;2023-07-08T11:38:02;8.80;;;3.67;;
13269;SDS011;6703;51.994;7.570;2023-07-08T11:40:30;9.88;;;3.90;;
13269;SDS011;6703;51.994;7.570;2023-07-08T11:43:02;7.30;;;3.65;;
13269;SDS011;6703;51.994;7.570;2023-07-08T11:45:33;6.85;;;3.65;;
13269;SDS011;6703;51.994;7.570;2023-07-08T11:48:04;6.35;;;3.55;;
13269;SDS011;6703;51.994;7.570;2023-07-08T11:50:35;9.77;;;4.07;;
13269;SDS011;6703;51.994;7.570;2023-07-08T11:53:06;10.13;;;3.90;;
13269;SDS011;6703;51.994;7.570;2023-07-08T11:55:36;10.25;;;4.13;;
13269;SDS011;6703;51.994;7.570;2023-07-08T11:58:13;9.30;;;3.97;;
13269;SDS011;6703;51.994;7.570;2023-07-08T12:00:51;8.27;;;3.80;;
13269;SDS011;6703;51.994;7.570;2023-07-08T12:03:29;8.27;;;3.70;;
13269;SDS011;6703;51.994;7.570;2023-07-08T12:06:00;9.57;;;3.80;;
13269;SDS011;6703;51.994;7.570;2023-07-08T12:08:33;8.63;;;3.92;;
13269;SDS011;6703;51.994;7.570;2023-07-08T12:11:02;6.28;;;3.60;;
13269;SDS011;6703;51.994;7.570;2023-07-08T12:13:33;8.60;;;4.00;;
13269;SDS011;6703;51.994;7.570;2023-07-08T12:16:02;9.05;;;3.53;;
13269;SDS011;6703;51.994;7.570;2023-07-08T12:18:31;7.38;;;3.72;;
13269;SDS011;6703;51.994;7.570;2023-07-08T12:21:02;8.93;;;3.92;;
13269;SDS011;6703;51.994;7.570;2023-07-08T12:23:29;9.60;;;3.85;;
13269;SDS011;6703;51.994;7.570;2023-07-08T12:25:57;7.43;;;3.95;;
13269;SDS011;6703;51.994;7.570;2023-07-08T12:28:25;8.88;;;3.65;;
13269;SDS011;6703;51.994;7.570;2023-07-08T12:30:55;6.43;;;3.55;;
13269;SDS011;6703;51.994;7.570;2023-07-08T12:33:27;6.10;;;3.70;;
13269;SDS011;6703;51.994;7.570;2023-07-08T12:35:57;6.30;;;3.42;;
13269;SDS011;6703;51.994;7.570;2023-07-08T12:38:28;5.33;;;3.37;;
13269;SDS011;6703;51.994;7.570;2023-07-08T12:40:58;11.02;;;4.38;;
13269;SDS011;6703;51.994;7.570;2023-07-08T12:43:29;8.25;;;3.78;;
13269;SDS011;6703;51.994;7.570;2023-07-08T12:45:58;9.88;;;3.92;;
13269;SDS011;6703;51.994;7.570;2023-07-08T12:48:30;8.43;;;3.78;;
13269;SDS011;6703;51.994;7.570;2023-07-08T12:50:59;5.45;;;3.42;;
13269;SDS011;6703;51.994;7.570;2023-07-08T12:53:27;9.05;;;3.53;;
13269;SDS011;6703;51.994;7.570;2023-07-08T12:55:55;7.47;;;3.97;;
13269;SDS011;6703;51.994;7.570;2023-07-08T12:58:26;6.93;;;3.90;;
13269;SDS011;6703;51.994;7.570;2023-07-08T13:00:55;6.55;;;3.78;;
13269;SDS011;6703;51.994;7.570;2023-07-08T13:03:27;8.10;;;3.63;;
13269;SDS011;6703;51.994;7.570;2023-07-08T13:05:56;5.53;;;3.55;;
13269;SDS011;6703;51.994;7.570;2023-07-08T13:08:25;7.10;;;3.65;;
13269;SDS011;6703;51.994;7.570;2023-07-08T13:10:57;6.70;;;3.90;;
13269;SDS011;6703;51.994;7.570;2023-07-08T13:13:28;9.27;;;3.92;;
13269;SDS011;6703;51.994;7.570;2023-07-08T13:15:59;6.88;;;3.95;;
13269;SDS011;6703;51.994;7.570;2023-07-08T13:18:30;6.38;;;3.45;;
13269;SDS011;6703;51.994;7.570;2023-07-08T13:20:59;5.30;;;3.58;;
13269;SDS011;6703;51.994;7.570;2023-07-08T13:23:27;5.40;;;3.72;;
13269;SDS011;6703;51.994;7.570;2023-07-08T13:25:56;6.05;;;3.38;;
13269;SDS011;6703;51.994;7.570;2023-07-08T13:28:25;7.88;;;3.67;;
13269;SDS011;6703;51.994;7.570;2023-07-08T13:30:55;6.30;;;3.88;;
13269;SDS011;6703;51.994;7.570;2023-07-08T13:33:29;13.52;;;3.45;;
13269;SDS011;6703;51.994;7.570;2023-07-08T13:36:00;6.55;;;3.40;;
13269;SDS011;6703;51.994;7.570;2023-07-08T13:38:31;5.82;;;3.67;;
13269;SDS011;6703;51.994;7.570;2023-07-08T13:41:01;5.32;;;3.60;;
13269;SDS011;6703;51.994;7.570;2023-07-08T13:43:30;5.83;;;3.20;;
13269;SDS011;6703;51.994;7.570;2023-07-08T13:45:59;8.48;;;3.47;;
13269;SDS011;6703;51.994;7.570;2023-07-08T13:48:28;8.83;;;3.53;;
13269;SDS011;6703;51.994;7.570;2023-07-08T13:51:01;6.13;;;3.50;;
13269;SDS011;6703;51.994;7.570;2023-07-08T13:53:38;7.35;;;4.00;;
13269;SDS011;6703;51.994;7.570;2023-07-08T13:56:11;8.75;;;3.72;;
13269;SDS011;6703;51.994;7.570;2023-07-08T13:58:42;8.17;;;3.77;;
13269;SDS011;6703;51.994;7.570;2023-07-08T14:01:11;6.72;;;3.85;;
13269;SDS011;6703;51.994;7.570;2023-07-08T14:03:48;6.00;;;3.75;;
13269;SDS011;6703;51.994;7.570;2023-07-08T14:06:17;5.70;;;3.83;;
13269;SDS011;6703;51.994;7.570;2023-07-08T14:08:45;6.47;;;3.85;;
13269;SDS011;6703;51.994;7.570;2023-07-08T14:11:13;7.70;;;3.80;;
13269;SDS011;6703;51.994;7.570;2023-07-08T14:13:41;9.38;;;3.60;;
13269;SDS011;6703;51.994;7.570;2023-07-08T14:16:10;5.53;;;3.50;;
13269;SDS011;6703;51.994;7.570;2023-07-08T14:18:45;9.27;;;3.50;;
13269;SDS011;6703;51.994;7.570;2023-07-08T14:21:16;7.38;;;3.78;;
13269;SDS011;6703;51.994;7.570;2023-07-08T14:23:45;6.45;;;3.90;;
13269;SDS011;6703;51.994;7.570;2023-07-08T14:26:12;4.68;;;3.45;;
13269;SDS011;6703;51.994;7.570;2023-07-08T14:28:40;7.57;;;3.50;;
13269;SDS011;6703;51.994;7.570;2023-07-08T14:31:08;6.05;;;3.70;;
13269;SDS011;6703;51.994;7.570;2023-07-08T14:33:37;5.70;;;3.47;;
13269;SDS011;6703;51.994;7.570;2023-07-08T14:36:07;7.10;;;3.70;;
13269;SDS011;6703;51.994;7.570;2023-07-08T14:38:36;7.45;;;3.50;;
13269;SDS011;6703;51.994;7.570;2023-07-08T14:41:04;7.33;;;3.20;;
13269;SDS011;6703;51.994;7.570;2023-07-08T14:43:33;8.75;;;3.60;;
13269;SDS011;6703;51.994;7.570;2023-07-08T14:46:03;7.10;;;3.58;;
13269;SDS011;6703;51.994;7.570;2023-07-08T14:48:32;5.22;;;3.47;;
13269;SDS011;6703;51.994;7.570;2023-07-08T14:51:00;5.35;;;3.35;;
13269;SDS011;6703;51.994;7.570;2023-07-08T14:53:29;7.13;;;3.42;;
13269;SDS011;6703;51.994;7.570;2023-07-08T14:55:58;10.98;;;3.53;;
13269;SDS011;6703;51.994;7.570;2023-07-08T14:58:28;8.27;;;3.60;;
13269;SDS011;6703;51.994;7.570;2023-07-08T15:00:58;7.00;;;3.30;;
13269;SDS011;6703;51.994;7.570;2023-07-08T15:03:29;4.90;;;3.50;;
13269;SDS011;6703;51.994;7.570;2023-07-08T15:05:57;6.00;;;3.65;;
13269;SDS011;6703;51.994;7.570;2023-07-08T15:08:25;6.63;;;3.30;;
13269;SDS011;6703;51.994;7.570;2023-07-08T15:10:54;6.73;;;3.40;;
13269;SDS011;6703;51.994;7.570;2023-07-08T15:13:23;8.25;;;3.45;;
13269;SDS011;6703;51.994;7.570;2023-07-08T15:15:54;6.50;;;3.35;;
13269;SDS011;6703;51.994;7.570;2023-07-08T15:18:21;8.23;;;3.08;;
13269;SDS011;6703;51.994;7.570;2023-07-08T15:20:49;8.40;;;3.65;;
13269;SDS011;6703;51.994;7.570;2023-07-08T15:23:17;4.43;;;3.10;;